Time;durP1;ratioP1;P1;durP2;ratioP2;P2;SDS_P1;SDS_P2;PMS_P1;PMS_P2;Temp;Humidity;BMP_temperature;BMP_pressure;BME280_temperature;BME280_humidity;BME280_pressure;Samples;Min_cycle;Max_cycle;Signal;HPM_P1;HPM_P2
2022/12/14 00:00:57;;;;;;;6.97;6.13;;;-1.70;99.90;;;;;;5079295;28;20203;-87
2022/12/14 00:03:23;;;;;;;8.87;6.80;;;-1.80;99.90;;;;;;5081973;28;20176;-78
2022/12/14 00:05:50;;;;;;;10.23;7.27;;;-1.90;99.90;;;;;;5075412;28;20168;-83
2022/12/14 00:08:17;;;;;;;10.53;7.40;;;-2.00;99.80;;;;;;5075179;28;20221;-81
2022/12/14 00:10:43;;;;;;;7.17;5.80;;;-2.00;99.80;;;;;;5074952;28;20619;-81
2022/12/14 00:13:13;;;;;;;7.80;5.67;;;-2.00;99.90;;;;;;5075011;28;20175;-79
2022/12/14 00:15:39;;;;;;;9.23;6.80;;;-2.00;99.90;;;;;;5075325;28;20156;-80
2022/12/14 00:18:05;;;;;;;7.83;6.13;;;-2.10;99.90;;;;;;5074966;28;20175;-84
2022/12/14 00:20:32;;;;;;;8.67;6.33;;;-2.10;99.90;;;;;;5075238;28;20572;-86
2022/12/14 00:22:58;;;;;;;9.93;5.70;;;-2.10;99.90;;;;;;5075395;28;20267;-81
2022/12/14 00:25:25;;;;;;;10.63;6.13;;;-2.00;99.90;;;;;;5073966;28;20212;-85
2022/12/14 00:27:51;;;;;;;8.13;6.30;;;-2.00;99.90;;;;;;5075510;28;20199;-88
2022/12/14 00:30:19;;;;;;;7.90;5.70;;;-1.90;99.90;;;;;;5075960;28;20178;-85
2022/12/14 00:32:46;;;;;;;8.67;5.87;;;-1.90;99.90;;;;;;5077899;28;20183;-89
2022/12/14 00:35:17;;;;;;;13.00;6.77;;;-1.80;99.90;;;;;;5094409;28;20159;-86
2022/12/14 00:37:43;;;;;;;7.50;6.07;;;-1.80;99.80;;;;;;5088618;28;20174;-87
2022/12/14 00:40:10;;;;;;;9.53;6.63;;;-1.80;99.90;;;;;;5089600;28;20179;-86
2022/12/14 00:42:36;;;;;;;9.97;6.33;;;-1.80;99.90;;;;;;5086280;28;20168;-88
2022/12/14 00:45:04;;;;;;;9.50;6.17;;;-1.80;99.90;;;;;;5076102;28;20525;-88
2022/12/14 00:47:30;;;;;;;8.87;6.70;;;-1.90;99.90;;;;;;5076734;28;20206;-89
2022/12/14 00:49:56;;;;;;;10.40;6.20;;;-1.80;99.90;;;;;;5076192;28;20662;-88
2022/12/14 00:52:22;;;;;;;8.17;5.73;;;-1.90;99.90;;;;;;5075329;28;20212;-89
2022/12/14 00:54:47;;;;;;;9.57;6.33;;;-1.80;99.90;;;;;;5075049;28;20178;-89
2022/12/14 00:57:13;;;;;;;10.83;6.57;;;-1.80;99.90;;;;;;5075382;28;20258;-86
2022/12/14 00:59:39;;;;;;;11.03;6.43;;;-1.80;99.90;;;;;;5076909;28;20168;-87
2022/12/14 01:02:05;;;;;;;9.67;6.10;;;-1.70;99.90;;;;;;5075843;28;20220;-87
2022/12/14 01:04:31;;;;;;;9.07;6.57;;;-1.70;99.90;;;;;;5074861;28;20202;-88
2022/12/14 01:06:57;;;;;;;9.23;6.43;;;-1.80;99.90;;;;;;5074564;28;20695;-84
2022/12/14 01:09:24;;;;;;;8.70;6.33;;;-1.60;99.90;;;;;;5076482;28;20164;-86
2022/12/14 01:11:50;;;;;;;9.60;6.70;;;-1.60;99.90;;;;;;5074202;28;20178;-85
2022/12/14 01:14:18;;;;;;;10.43;6.70;;;-1.60;99.90;;;;;;5074684;28;20197;-84
2022/12/14 01:16:45;;;;;;;12.90;6.67;;;-1.60;99.90;;;;;;5075374;28;20167;-82
2022/12/14 01:19:11;;;;;;;10.03;6.70;;;-1.50;99.90;;;;;;5074466;28;20175;-83
2022/12/14 01:21:37;;;;;;;7.40;5.83;;;-1.40;99.90;;;;;;5075290;28;20168;-84
2022/12/14 01:24:04;;;;;;;9.90;6.93;;;-1.40;99.90;;;;;;5074401;28;20175;-80
2022/12/14 01:26:32;;;;;;;10.73;6.40;;;-1.30;99.90;;;;;;5077203;28;20196;-80
2022/12/14 01:28:58;;;;;;;9.83;6.03;;;-1.40;99.90;;;;;;5073844;28;20180;-79
2022/12/14 01:31:26;;;;;;;8.73;6.27;;;-1.30;99.90;;;;;;5073147;28;20179;-79
2022/12/14 01:33:52;;;;;;;9.77;6.57;;;-1.40;99.80;;;;;;5077065;28;20174;-88
2022/12/14 01:36:25;;;;;;;8.83;6.07;;;-1.50;99.80;;;;;;5076596;28;20527;-90
2022/12/14 01:38:59;;;;;;;7.70;6.23;;;-1.50;99.90;;;;;;5082918;28;20183;-88
2022/12/14 01:41:31;;;;;;;9.00;6.87;;;-1.40;99.90;;;;;;5089961;28;20632;-86
2022/12/14 01:44:02;;;;;;;8.43;5.97;;;-1.40;99.90;;;;;;5076003;28;20176;-89
2022/12/14 01:46:48;;;;;;;10.47;6.87;;;-1.50;99.90;;;;;;5074783;28;20202;-86
2022/12/14 01:49:22;;;;;;;9.87;6.83;;;-1.40;99.90;;;;;;5074109;28;20215;-85
2022/12/14 01:52:07;;;;;;;11.80;6.77;;;-1.40;99.90;;;;;;5074328;28;20160;-87
2022/12/14 01:54:35;;;;;;;10.03;5.97;;;-1.30;99.90;;;;;;5073929;28;20159;-84
2022/12/14 01:57:01;;;;;;;9.70;6.37;;;-1.30;99.90;;;;;;5073607;28;20164;-79
2022/12/14 01:59:33;;;;;;;9.83;6.83;;;-1.30;99.80;;;;;;5073169;28;20179;-79
2022/12/14 02:02:02;;;;;;;9.63;7.00;;;-1.50;99.80;;;;;;5072719;28;20522;-80
2022/12/14 02:04:28;;;;;;;7.67;5.90;;;-1.50;99.90;;;;;;5073115;28;20176;-81
2022/12/14 02:06:54;;;;;;;9.50;6.47;;;-1.50;99.90;;;;;;5073698;28;20224;-85
2022/12/14 02:09:25;;;;;;;9.17;6.50;;;-1.40;99.90;;;;;;5072335;28;20178;-89
2022/12/14 02:12:06;;;;;;;7.80;6.10;;;-1.40;99.80;;;;;;5072698;28;20608;-82
2022/12/14 02:14:33;;;;;;;9.17;6.43;;;-1.40;99.90;;;;;;5083021;28;20156;-85
2022/12/14 02:17:00;;;;;;;8.53;6.37;;;-1.50;99.80;;;;;;5086804;28;20624;-87
2022/12/14 02:19:26;;;;;;;10.20;6.40;;;-1.50;99.90;;;;;;5089513;28;20171;-89
2022/12/14 02:22:10;;;;;;;8.60;6.80;;;-1.40;99.90;;;;;;5072940;28;20274;-88
2022/12/14 02:25:07;;;;;;;8.73;6.67;;;-1.40;99.90;;;;;;5077417;28;20645;-89
2022/12/14 02:27:35;;;;;;;10.80;6.47;;;-1.40;99.90;;;;;;5080827;28;20245;-87
2022/12/14 02:30:11;;;;;;;10.83;6.77;;;-1.50;99.80;;;;;;5074165;28;20190;-86
2022/12/14 02:32:53;;;;;;;13.03;6.57;;;-1.60;99.90;;;;;;5073575;28;20171;-89
2022/12/14 02:35:33;;;;;;;7.37;5.93;;;-1.50;99.90;;;;;;5073683;28;20217;-87
2022/12/14 02:38:14;;;;;;;8.73;6.40;;;-1.40;99.90;;;;;;5078339;28;20166;-88
2022/12/14 02:41:08;;;;;;;8.03;6.47;;;-1.40;99.90;;;;;;5088504;28;20168;-87
2022/12/14 02:43:48;;;;;;;9.10;5.97;;;-1.40;99.90;;;;;;5074544;28;20533;-87
2022/12/14 02:46:17;;;;;;;10.20;6.83;;;-1.30;99.90;;;;;;5073830;28;20191;-88
2022/12/14 02:49:12;;;;;;;8.93;7.00;;;-1.30;99.90;;;;;;5074698;28;20197;-81
2022/12/14 02:51:45;;;;;;;8.83;6.90;;;-1.40;99.90;;;;;;5078375;28;20157;-80
2022/12/14 02:55:03;;;;;;;8.17;6.30;;;-1.40;99.90;;;;;;5074878;28;20263;-83
2022/12/14 02:57:37;;;;;;;8.07;6.23;;;-1.30;99.90;;;;;;5063454;28;20252;-78
2022/12/14 03:00:05;;;;;;;7.90;6.50;;;-1.30;99.90;;;;;;5072354;28;20638;-80
2022/12/14 03:02:35;;;;;;;8.67;6.80;;;-1.30;99.90;;;;;;5072591;28;20219;-81
2022/12/14 03:05:01;;;;;;;10.50;6.80;;;-1.30;99.90;;;;;;5072598;28;20168;-83
2022/12/14 03:07:49;;;;;;;8.37;5.80;;;-1.40;99.90;;;;;;5074060;28;20594;-84
2022/12/14 03:10:15;;;;;;;12.90;6.50;;;-1.50;99.90;;;;;;5073668;28;20646;-83
2022/12/14 03:12:47;;;;;;;10.20;6.60;;;-1.50;99.90;;;;;;5071354;28;20182;-84
2022/12/14 03:15:15;;;;;;;8.63;6.77;;;-1.50;99.90;;;;;;5074813;28;20160;-83
2022/12/14 03:17:45;;;;;;;9.13;6.30;;;-1.60;99.90;;;;;;5075500;28;20184;-79
2022/12/14 03:20:14;;;;;;;8.13;6.50;;;-1.60;99.90;;;;;;5074450;28;20175;-81
2022/12/14 03:22:59;;;;;;;9.07;6.67;;;-1.60;99.90;;;;;;5076003;28;20179;-83
2022/12/14 03:25:43;;;;;;;7.93;5.90;;;-1.70;99.90;;;;;;5075882;28;20208;-81
2022/12/14 03:28:12;;;;;;;8.93;6.40;;;-1.60;99.90;;;;;;5074710;28;20206;-86
2022/12/14 03:30:42;;;;;;;8.97;6.77;;;-1.70;99.90;;;;;;5076446;28;20666;-84
2022/12/14 03:33:17;;;;;;;13.17;6.30;;;-1.70;99.90;;;;;;5076142;28;20667;-90
2022/12/14 03:35:55;;;;;;;8.53;6.00;;;-1.70;99.90;;;;;;5076455;28;20155;-88
2022/12/14 03:38:34;;;;;;;9.23;6.50;;;-1.70;99.90;;;;;;5076881;28;20190;-84
2022/12/14 03:41:20;;;;;;;9.93;6.17;;;-1.50;99.90;;;;;;5076475;28;20162;-89
2022/12/14 03:44:10;;;;;;;10.70;6.93;;;-1.40;99.90;;;;;;5077345;28;20165;-86
2022/12/14 03:47:09;;;;;;;9.83;6.83;;;-1.30;99.90;;;;;;5079457;28;20201;-91
2022/12/14 03:50:00;;;;;;;8.77;6.43;;;-1.20;99.90;;;;;;5088107;28;20176;-86
2022/12/14 03:52:54;;;;;;;7.80;6.17;;;-1.20;99.90;;;;;;5093185;28;20156;-82
2022/12/14 03:55:52;;;;;;;9.47;5.73;;;-1.30;99.90;;;;;;5100138;28;20277;-83
2022/12/14 03:58:27;;;;;;;9.43;6.30;;;-1.30;99.90;;;;;;5081528;28;20203;-80
2022/12/14 04:01:07;;;;;;;7.37;6.03;;;-1.20;99.90;;;;;;5080621;28;20171;-88
2022/12/14 04:04:11;;;;;;;9.30;6.47;;;-1.20;99.90;;;;;;5075416;28;20163;-86
2022/12/14 04:07:02;;;;;;;9.10;6.57;;;-1.10;99.90;;;;;;5079437;28;20243;-87
2022/12/14 04:09:28;;;;;;;8.97;6.90;;;-1.10;99.90;;;;;;5074344;28;20270;-90
2022/12/14 04:21:10;;;;;;;8.63;6.47;;;-1.20;99.90;;;;;;5055653;28;20180;-89
2022/12/14 04:26:31;;;;;;;9.80;6.67;;;-1.10;99.90;;;;;;5055198;28;20171;-86
2022/12/14 04:31:53;;;;;;;9.37;6.67;;;-1.20;99.90;;;;;;5055647;28;20171;-89
2022/12/14 04:34:25;;;;;;;7.60;5.77;;;-1.10;99.90;;;;;;5055079;28;20172;-83
2022/12/14 04:36:56;;;;;;;8.37;6.37;;;-1.10;99.90;;;;;;5052925;28;20167;-81
2022/12/14 04:39:42;;;;;;;10.07;6.83;;;-1.00;99.90;;;;;;5054327;28;20164;-80
2022/12/14 04:42:12;;;;;;;9.63;7.10;;;-1.10;99.90;;;;;;5057012;28;20164;-81
2022/12/14 04:44:48;;;;;;;10.13;6.87;;;-1.10;99.90;;;;;;5055434;28;20173;-82
2022/12/14 04:47:16;;;;;;;9.60;6.67;;;-1.10;99.90;;;;;;5087806;28;20547;-87
2022/12/14 04:50:07;;;;;;;8.53;6.27;;;-1.10;99.90;;;;;;5055618;28;20168;-86
2022/12/14 04:52:43;;;;;;;9.43;6.83;;;-1.10;99.90;;;;;;5057371;28;20248;-87
2022/12/14 04:55:15;;;;;;;10.10;6.90;;;-1.10;99.90;;;;;;5066681;28;20229;-89
2022/12/14 04:58:03;;;;;;;12.10;7.00;;;-1.10;99.90;;;;;;5075343;28;20182;-87
2022/12/14 05:00:33;;;;;;;10.37;6.90;;;-1.10;99.90;;;;;;5074533;28;20172;-90
2022/12/14 05:03:29;;;;;;;10.40;7.33;;;-1.10;99.90;;;;;;5073316;28;20168;-89
2022/12/14 05:06:19;;;;;;;9.07;7.27;;;-1.10;99.90;;;;;;5079500;28;20160;-84
2022/12/14 05:09:04;;;;;;;9.53;6.50;;;-1.00;99.90;;;;;;5088614;28;20188;-87
2022/12/14 05:11:51;;;;;;;9.47;6.80;;;-1.00;99.90;;;;;;5076728;28;20164;-90
2022/12/14 05:14:23;;;;;;;13.67;6.90;;;-0.90;99.90;;;;;;5075055;28;20488;-88
2022/12/14 05:16:49;;;;;;;10.03;6.90;;;-0.80;99.90;;;;;;5073934;28;20164;-89
2022/12/14 05:19:15;;;;;;;10.23;6.77;;;-0.70;99.90;;;;;;5074507;28;20259;-90
2022/12/14 05:21:47;;;;;;;9.40;6.97;;;-0.70;99.90;;;;;;5073947;28;20691;-86
2022/12/14 05:24:13;;;;;;;12.73;8.20;;;-0.70;99.90;;;;;;5075492;28;20567;-80
2022/12/14 05:26:39;;;;;;;9.27;7.13;;;-0.80;99.90;;;;;;5078433;28;20203;-79
2022/12/14 05:29:04;;;;;;;12.07;8.10;;;-0.70;99.90;;;;;;5075392;28;20318;-83
2022/12/14 05:31:31;;;;;;;11.83;8.13;;;-0.80;99.90;;;;;;5072932;28;20174;-82
2022/12/14 05:33:57;;;;;;;11.87;7.97;;;-0.70;99.90;;;;;;5073459;28;20623;-86
2022/12/14 05:36:23;;;;;;;10.77;8.00;;;-0.60;99.90;;;;;;5087904;28;20236;-81
2022/12/14 05:38:48;;;;;;;12.17;8.43;;;-0.60;99.90;;;;;;5090585;28;20173;-87
2022/12/14 05:41:14;;;;;;;12.47;8.50;;;-0.60;99.90;;;;;;5082505;28;20180;-86
2022/12/14 05:43:40;;;;;;;12.40;8.20;;;-0.60;99.90;;;;;;5080908;28;20192;-86
2022/12/14 05:46:08;;;;;;;10.20;7.10;;;-0.50;99.90;;;;;;5074100;28;20623;-83
2022/12/14 05:48:34;;;;;;;12.57;7.83;;;-0.50;99.90;;;;;;5073794;28;20208;-85
2022/12/14 05:51:11;;;;;;;11.07;7.40;;;-0.60;99.90;;;;;;5074090;28;20172;-87
2022/12/14 05:53:38;;;;;;;11.30;8.00;;;-0.50;99.90;;;;;;5073419;28;20539;-85
2022/12/14 05:56:06;;;;;;;12.23;7.17;;;-0.60;99.90;;;;;;5072459;28;20215;-83
2022/12/14 05:58:33;;;;;;;12.43;7.80;;;-0.70;99.90;;;;;;5072168;28;20207;-85
2022/12/14 06:01:00;;;;;;;12.70;7.77;;;-0.80;99.90;;;;;;5073541;28;20180;-83
2022/12/14 06:03:26;;;;;;;12.37;7.90;;;-0.80;99.90;;;;;;5073373;28;20165;-85
2022/12/14 06:05:52;;;;;;;11.83;7.30;;;-0.80;99.90;;;;;;5073150;28;20174;-82
2022/12/14 06:08:18;;;;;;;12.57;7.13;;;-0.80;99.90;;;;;;5075608;28;20271;-85
2022/12/14 06:10:44;;;;;;;11.53;7.50;;;-0.80;99.90;;;;;;5084072;28;20232;-89
2022/12/14 06:13:09;;;;;;;11.37;7.67;;;-0.80;99.90;;;;;;5078895;28;20184;-88
2022/12/14 06:15:35;;;;;;;13.33;7.83;;;-0.80;99.90;;;;;;5076161;28;20300;-87
2022/12/14 06:18:01;;;;;;;12.87;7.73;;;-0.70;99.90;;;;;;5080581;28;20208;-88
2022/12/14 06:20:27;;;;;;;14.87;8.07;;;-0.70;99.90;;;;;;5089746;28;20223;-90
2022/12/14 06:22:56;;;;;;;12.57;8.60;;;-0.70;99.90;;;;;;5088684;28;20168;-86
2022/12/14 06:25:21;;;;;;;13.57;9.60;;;-0.70;99.90;;;;;;5073958;28;20172;-88
2022/12/14 06:27:53;;;;;;;11.13;8.57;;;-0.60;99.90;;;;;;5075098;28;20232;-90
2022/12/14 06:30:19;;;;;;;17.53;8.57;;;-0.60;99.90;;;;;;5088925;28;20521;-89
2022/12/14 06:32:44;;;;;;;11.90;8.53;;;-0.60;99.90;;;;;;5075848;28;20263;-86
2022/12/14 06:35:10;;;;;;;10.67;7.73;;;-0.60;99.90;;;;;;5074679;28;20260;-88
2022/12/14 06:37:36;;;;;;;11.90;7.43;;;-0.60;99.90;;;;;;5073694;28;20186;-88
2022/12/14 06:40:02;;;;;;;8.43;6.83;;;-0.70;99.90;;;;;;5073645;28;20175;-88
2022/12/14 06:42:28;;;;;;;12.03;7.53;;;-0.80;99.90;;;;;;5074712;28;20184;-88
2022/12/14 06:44:53;;;;;;;12.17;7.57;;;-0.90;99.90;;;;;;5074496;28;20631;-88
2022/12/14 06:47:19;;;;;;;12.27;7.73;;;-1.10;99.90;;;;;;5085543;28;20215;-90
2022/12/14 06:49:45;;;;;;;13.60;8.43;;;-1.10;99.90;;;;;;5078460;28;20537;-87
2022/12/14 06:52:11;;;;;;;15.07;8.63;;;-1.10;99.90;;;;;;5078076;28;20187;-89
2022/12/14 06:54:36;;;;;;;9.43;7.87;;;-1.10;99.90;;;;;;5079815;28;20572;-87
2022/12/14 06:57:02;;;;;;;11.73;7.47;;;-1.10;99.90;;;;;;5081196;28;20175;-88
2022/12/14 06:59:29;;;;;;;10.83;8.20;;;-1.00;99.90;;;;;;5085085;28;20669;-88
2022/12/14 07:01:54;;;;;;;12.60;8.53;;;-0.90;99.90;;;;;;5080806;28;20260;-87
2022/12/14 07:04:20;;;;;;;12.27;8.40;;;-0.90;99.90;;;;;;5078562;28;20209;-87
2022/12/14 07:06:46;;;;;;;13.00;8.33;;;-0.60;99.90;;;;;;5079597;28;20629;-84
2022/12/14 07:09:13;;;;;;;14.13;8.87;;;-0.50;99.90;;;;;;5078979;28;20177;-83
2022/12/14 07:11:39;;;;;;;11.83;8.80;;;-0.50;99.90;;;;;;5080557;28;20168;-84
2022/12/14 07:14:06;;;;;;;14.13;9.13;;;-0.40;99.90;;;;;;5079331;28;20715;-81
2022/12/14 07:16:33;;;;;;;11.73;8.07;;;-0.30;99.90;;;;;;5091069;28;20265;-84
2022/12/14 07:18:59;;;;;;;12.30;8.17;;;-0.30;99.90;;;;;;5083697;28;20179;-86
2022/12/14 07:21:26;;;;;;;11.63;8.07;;;-0.30;99.90;;;;;;5078304;28;20528;-82
2022/12/14 07:23:52;;;;;;;12.93;8.33;;;-0.30;99.90;;;;;;5078225;28;20193;-85
2022/12/14 07:26:26;;;;;;;13.77;8.13;;;-0.30;99.90;;;;;;5083409;28;20537;-81
2022/12/14 07:28:52;;;;;;;12.90;8.70;;;-0.20;99.90;;;;;;5083191;28;20169;-87
2022/12/14 07:31:23;;;;;;;15.43;9.83;;;-0.20;99.90;;;;;;5079153;28;20765;-84
2022/12/14 07:33:53;;;;;;;13.30;9.17;;;-0.10;99.90;;;;;;5086940;28;20265;-88
2022/12/14 07:36:19;;;;;;;14.67;8.63;;;-0.10;99.90;;;;;;5077179;28;20286;-87
2022/12/14 07:38:47;;;;;;;14.93;8.80;;;0.00;99.90;;;;;;5075563;28;20266;-88
2022/12/14 07:41:19;;;;;;;15.00;8.90;;;0.00;99.90;;;;;;5077468;28;20230;-87
2022/12/14 07:43:46;;;;;;;12.37;8.10;;;0.00;99.90;;;;;;5076301;28;20179;-89
2022/12/14 07:46:15;;;;;;;16.70;8.53;;;0.10;99.90;;;;;;5075757;28;20174;-87
2022/12/14 07:48:49;;;;;;;12.10;8.73;;;0.10;99.90;;;;;;5076740;28;20618;-84
2022/12/14 07:51:17;;;;;;;13.17;8.47;;;0.10;99.90;;;;;;5081978;28;20183;-87
2022/12/14 07:53:44;;;;;;;12.80;8.33;;;0.20;99.90;;;;;;5084775;28;20220;-84
2022/12/14 07:56:15;;;;;;;12.67;8.80;;;0.30;99.90;;;;;;5075228;28;20238;-86
2022/12/14 07:58:41;;;;;;;14.33;9.40;;;0.30;99.90;;;;;;5076412;28;20169;-81
2022/12/14 08:01:12;;;;;;;12.90;9.00;;;0.30;99.90;;;;;;5075183;28;20325;-80
2022/12/14 08:03:40;;;;;;;13.57;8.90;;;0.30;99.90;;;;;;5076723;28;20222;-85
2022/12/14 08:06:08;;;;;;;14.90;8.63;;;0.20;99.90;;;;;;5077405;28;20185;-88
2022/12/14 08:08:34;;;;;;;15.77;9.33;;;0.20;99.90;;;;;;5079165;28;20696;-87
2022/12/14 08:11:00;;;;;;;12.90;8.63;;;0.20;99.90;;;;;;5075928;28;20182;-81
2022/12/14 08:13:26;;;;;;;18.40;9.90;;;0.20;99.90;;;;;;5074217;28;20181;-79
2022/12/14 08:15:53;;;;;;;15.27;9.60;;;0.10;99.90;;;;;;5073484;28;20184;-78
2022/12/14 08:18:18;;;;;;;16.73;9.37;;;0.00;99.90;;;;;;5073721;28;20226;-80
2022/12/14 08:20:50;;;;;;;11.17;9.00;;;0.10;99.90;;;;;;5074599;28;20187;-78
2022/12/14 08:23:17;;;;;;;13.80;9.30;;;0.20;99.90;;;;;;5076600;28;20222;-78
2022/12/14 08:25:43;;;;;;;14.93;8.73;;;0.20;99.90;;;;;;5075874;28;20168;-79
2022/12/14 08:28:08;;;;;;;12.40;8.80;;;0.30;99.90;;;;;;5074624;28;20237;-79
2022/12/14 08:30:38;;;;;;;19.03;8.67;;;0.40;99.90;;;;;;5074105;28;20192;-79
2022/12/14 08:33:05;;;;;;;15.23;8.97;;;0.50;99.90;;;;;;5076298;28;20179;-82
2022/12/14 08:35:32;;;;;;;13.90;8.83;;;0.60;99.90;;;;;;5075036;28;20178;-78
2022/12/14 08:37:58;;;;;;;13.33;8.87;;;0.60;99.90;;;;;;5074699;28;20209;-77
2022/12/14 08:40:25;;;;;;;13.43;9.50;;;0.60;99.90;;;;;;5073580;28;20189;-82
2022/12/14 08:42:51;;;;;;;14.30;9.40;;;0.70;99.90;;;;;;5073694;28;20178;-78
2022/12/14 08:45:17;;;;;;;17.33;9.43;;;0.70;99.90;;;;;;5078096;28;20187;-82
2022/12/14 08:47:43;;;;;;;16.63;9.47;;;0.70;99.90;;;;;;5080360;28;20208;-83
2022/12/14 08:50:09;;;;;;;13.47;9.77;;;0.60;99.90;;;;;;5080080;28;20177;-82
2022/12/14 08:52:34;;;;;;;16.80;9.60;;;0.60;99.90;;;;;;5079365;28;20248;-82
2022/12/14 08:55:00;;;;;;;14.03;9.47;;;0.70;99.90;;;;;;5083321;28;20182;-83
2022/12/14 08:57:26;;;;;;;18.57;10.50;;;0.80;99.90;;;;;;5080287;28;20180;-82
2022/12/14 08:59:52;;;;;;;14.80;10.53;;;0.80;99.90;;;;;;5075664;28;20177;-84
2022/12/14 09:02:17;;;;;;;14.47;10.10;;;0.70;99.90;;;;;;5074169;28;20189;-81
2022/12/14 09:04:43;;;;;;;15.37;10.67;;;0.70;99.90;;;;;;5074005;28;20581;-81
2022/12/14 09:07:09;;;;;;;16.20;10.10;;;0.70;99.90;;;;;;5073598;28;20237;-81
2022/12/14 09:09:36;;;;;;;13.97;10.00;;;0.70;99.90;;;;;;5074108;28;20178;-84
2022/12/14 09:12:06;;;;;;;18.83;10.97;;;0.80;99.90;;;;;;5073670;28;20173;-83
2022/12/14 09:14:35;;;;;;;17.83;9.53;;;0.90;99.90;;;;;;5072487;28;20173;-82
2022/12/14 09:17:02;;;;;;;16.63;10.83;;;0.90;99.90;;;;;;5073550;28;20173;-83
2022/12/14 09:19:28;;;;;;;16.60;10.43;;;0.90;99.90;;;;;;5075632;28;20583;-83
2022/12/14 09:21:54;;;;;;;17.77;11.73;;;0.90;99.90;;;;;;5075515;28;20190;-82
2022/12/14 09:24:23;;;;;;;16.20;10.03;;;1.00;99.90;;;;;;5075448;28;20179;-84
2022/12/14 09:26:49;;;;;;;14.53;10.73;;;1.10;99.90;;;;;;5079618;28;20232;-83
2022/12/14 09:29:17;;;;;;;15.70;11.10;;;1.10;99.90;;;;;;5081072;28;20172;-84
2022/12/14 09:31:43;;;;;;;18.03;11.57;;;1.10;99.90;;;;;;5082501;28;20183;-83
2022/12/14 09:34:09;;;;;;;18.33;11.80;;;1.20;99.90;;;;;;5074435;28;20541;-84
2022/12/14 09:36:35;;;;;;;18.00;10.80;;;1.30;99.90;;;;;;5073896;28;20597;-83
2022/12/14 09:39:02;;;;;;;16.23;9.63;;;1.40;99.90;;;;;;5073549;28;20245;-83
2022/12/14 09:41:34;;;;;;;15.43;10.07;;;1.40;99.90;;;;;;5072902;28;20541;-84
2022/12/14 09:44:12;;;;;;;12.57;9.37;;;1.50;99.90;;;;;;5074917;28;20566;-85
2022/12/14 09:47:02;;;;;;;14.63;10.30;;;1.40;99.90;;;;;;5074158;28;20280;-85
2022/12/14 09:49:33;;;;;;;14.83;10.23;;;1.50;99.90;;;;;;5073954;28;20166;-85
2022/12/14 09:52:02;;;;;;;14.67;9.90;;;1.50;99.60;;;;;;5073965;28;20164;-84
2022/12/14 09:54:32;;;;;;;15.10;10.10;;;1.40;99.50;;;;;;5074127;28;20177;-84
2022/12/14 09:57:03;;;;;;;18.57;10.80;;;1.40;99.50;;;;;;5077832;28;20167;-84
2022/12/14 09:59:32;;;;;;;17.70;11.13;;;1.40;99.80;;;;;;5073794;28;20255;-85
2022/12/14 10:02:25;;;;;;;17.10;11.10;;;1.50;99.90;;;;;;5073444;28;20175;-83
2022/12/14 10:04:54;;;;;;;17.20;11.03;;;1.50;99.90;;;;;;5073966;28;20158;-85
2022/12/14 10:07:34;;;;;;;15.87;11.00;;;1.40;99.40;;;;;;5074051;28;20606;-84
2022/12/14 10:10:23;;;;;;;17.90;10.87;;;1.30;99.50;;;;;;5076865;28;20166;-83
2022/12/14 10:13:21;;;;;;;17.80;11.27;;;1.30;99.90;;;;;;5079598;28;20628;-84
2022/12/14 10:15:58;;;;;;;16.03;11.03;;;1.30;99.90;;;;;;5053598;28;20211;-84
2022/12/14 10:18:51;;;;;;;16.83;11.03;;;1.30;99.90;;;;;;5073192;28;20163;-82
2022/12/14 10:21:24;;;;;;;17.67;10.23;;;1.30;99.90;;;;;;5073030;28;20162;-80
2022/12/14 10:24:00;;;;;;;19.70;11.73;;;1.30;99.90;;;;;;5073710;28;20272;-78
2022/12/14 10:26:33;;;;;;;20.77;11.50;;;1.30;99.90;;;;;;5076959;28;20620;-81
2022/12/14 10:29:03;;;;;;;18.53;11.63;;;1.40;99.90;;;;;;5076986;28;20177;-81
2022/12/14 10:31:34;;;;;;;16.67;11.27;;;1.40;99.90;;;;;;5077579;28;20169;-83
2022/12/14 10:34:18;;;;;;;17.83;11.40;;;1.50;99.90;;;;;;5082566;28;20174;-79
2022/12/14 10:37:02;;;;;;;16.67;10.77;;;1.50;99.90;;;;;;5092523;28;20193;-82
2022/12/14 10:39:57;;;;;;;17.37;11.27;;;1.60;99.90;;;;;;5077647;28;20739;-82
2022/12/14 10:42:41;;;;;;;14.23;10.43;;;1.60;99.90;;;;;;5071282;28;20191;-82
2022/12/14 10:45:31;;;;;;;17.00;11.67;;;1.60;99.90;;;;;;5080376;28;20202;-83
2022/12/14 10:48:13;;;;;;;19.37;11.90;;;1.60;99.90;;;;;;5077045;28;20201;-85
2022/12/14 10:50:44;;;;;;;18.57;10.53;;;1.60;99.90;;;;;;5076861;28;20179;-80
2022/12/14 10:53:18;;;;;;;18.67;11.00;;;1.60;99.90;;;;;;5076977;28;20167;-83
2022/12/14 10:55:45;;;;;;;19.57;11.90;;;1.60;99.80;;;;;;5076745;28;20585;-81
2022/12/14 10:58:11;;;;;;;15.77;10.77;;;1.70;99.80;;;;;;5076299;28;20202;-79
2022/12/14 11:00:37;;;;;;;16.47;10.87;;;1.70;99.60;;;;;;5075965;28;20198;-79
2022/12/14 11:03:11;;;;;;;16.53;10.10;;;1.70;99.50;;;;;;5076165;28;20210;-81
2022/12/14 11:05:54;;;;;;;18.60;10.73;;;1.70;99.50;;;;;;5076971;28;20160;-81
2022/12/14 11:08:40;;;;;;;16.23;10.93;;;1.70;99.80;;;;;;5078010;28;20213;-81
2022/12/14 11:11:23;;;;;;;18.70;12.07;;;1.70;99.70;;;;;;5078621;28;20182;-83
2022/12/14 11:13:54;;;;;;;19.30;12.27;;;1.70;99.50;;;;;;5075960;28;20154;-78
2022/12/14 11:16:36;;;;;;;19.33;11.63;;;1.70;99.40;;;;;;5076174;28;20254;-79
2022/12/14 11:19:03;;;;;;;19.40;11.97;;;1.70;99.70;;;;;;5074674;28;20638;-82
2022/12/14 11:21:35;;;;;;;19.67;11.57;;;1.70;99.60;;;;;;5074254;28;20179;-81
2022/12/14 11:24:02;;;;;;;17.67;11.80;;;1.60;99.30;;;;;;5075685;28;20526;-78
2022/12/14 11:26:37;;;;;;;16.47;10.97;;;1.70;99.60;;;;;;5075780;28;20326;-85
2022/12/14 11:29:14;;;;;;;18.60;11.17;;;1.60;99.40;;;;;;5076452;28;20178;-82
2022/12/14 11:31:44;;;;;;;19.20;12.20;;;1.50;99.90;;;;;;5076590;28;20486;-83
2022/12/14 11:34:29;;;;;;;16.00;11.20;;;1.50;99.80;;;;;;5078797;28;20175;-83
2022/12/14 11:36:54;;;;;;;16.33;11.70;;;1.40;99.40;;;;;;5075995;28;20166;-84
2022/12/14 11:39:23;;;;;;;19.57;11.47;;;1.50;99.70;;;;;;5075519;28;20168;-84
2022/12/14 11:42:00;;;;;;;15.70;11.73;;;1.50;99.90;;;;;;5075302;28;20171;-79
2022/12/14 11:44:32;;;;;;;17.37;11.90;;;1.70;99.60;;;;;;5075476;28;20727;-83
2022/12/14 11:46:57;;;;;;;17.30;10.83;;;1.80;99.70;;;;;;5074303;28;20199;-82
2022/12/14 11:49:42;;;;;;;18.10;11.70;;;1.90;99.60;;;;;;5075913;28;20178;-78
2022/12/14 11:52:18;;;;;;;17.03;11.07;;;2.00;99.60;;;;;;5075378;28;20167;-77
2022/12/14 11:55:07;;;;;;;19.43;12.07;;;2.00;99.50;;;;;;5075430;28;20173;-78
2022/12/14 11:57:39;;;;;;;19.83;11.53;;;2.00;99.30;;;;;;5068235;28;20650;-82
2022/12/14 12:00:27;;;;;;;22.23;12.43;;;2.00;99.50;;;;;;5075446;28;20163;-83
2022/12/14 12:03:00;;;;;;;17.77;11.90;;;2.20;99.70;;;;;;5075295;28;20171;-83
2022/12/14 12:05:30;;;;;;;14.53;11.53;;;2.10;99.50;;;;;;5075381;28;20166;-83
2022/12/14 12:07:58;;;;;;;17.27;11.83;;;2.00;99.30;;;;;;5074993;28;20232;-83
2022/12/14 12:10:40;;;;;;;21.13;12.03;;;2.10;99.30;;;;;;5075999;28;20543;-82
2022/12/14 12:13:29;;;;;;;17.90;11.77;;;2.20;99.20;;;;;;5076685;28;20157;-82
2022/12/14 12:15:59;;;;;;;17.13;11.33;;;2.30;99.30;;;;;;5083275;28;20218;-84
2022/12/14 12:18:35;;;;;;;18.00;11.23;;;2.30;99.50;;;;;;5075972;28;20646;-83
2022/12/14 12:21:11;;;;;;;15.57;10.77;;;2.40;99.20;;;;;;5076622;28;20174;-83
2022/12/14 12:23:54;;;;;;;19.57;12.07;;;2.30;99.10;;;;;;5078548;28;20178;-84
2022/12/14 12:26:28;;;;;;;18.33;12.27;;;2.30;99.30;;;;;;5079573;28;20244;-83
2022/12/14 12:29:05;;;;;;;17.63;11.87;;;2.20;99.40;;;;;;5075509;28;20186;-84
2022/12/14 12:31:39;;;;;;;19.40;11.83;;;2.20;99.60;;;;;;5083168;28;20634;-83
2022/12/14 12:34:18;;;;;;;20.13;11.97;;;2.20;99.60;;;;;;5081603;28;20164;-83
2022/12/14 12:36:46;;;;;;;20.83;12.60;;;2.20;99.70;;;;;;5076293;28;20645;-78
2022/12/14 12:39:15;;;;;;;19.80;12.43;;;2.10;99.30;;;;;;5074812;28;20220;-84
2022/12/14 12:42:07;;;;;;;16.93;11.67;;;2.10;99.60;;;;;;5074845;28;20516;-82
2022/12/14 12:44:44;;;;;;;17.10;11.87;;;2.10;99.80;;;;;;5074622;28;20175;-80
2022/12/14 12:47:39;;;;;;;17.87;10.87;;;2.10;99.60;;;;;;5074937;28;20267;-81
2022/12/14 12:50:21;;;;;;;17.07;10.60;;;2.00;99.40;;;;;;5082468;28;20170;-84
2022/12/14 12:52:59;;;;;;;19.00;12.10;;;2.00;99.80;;;;;;5074257;28;20167;-83
2022/12/14 12:55:27;;;;;;;15.80;11.20;;;2.00;99.50;;;;;;5074259;28;20165;-84
2022/12/14 12:57:55;;;;;;;18.07;10.97;;;1.90;99.70;;;;;;5074049;28;20171;-83
2022/12/14 13:00:26;;;;;;;14.60;10.77;;;1.90;99.90;;;;;;5074094;28;20258;-82
2022/12/14 13:03:00;;;;;;;16.30;11.23;;;1.90;99.90;;;;;;5074408;28;20177;-82
2022/12/14 13:05:28;;;;;;;15.30;10.70;;;2.00;99.90;;;;;;5074256;28;20161;-81
2022/12/14 13:07:56;;;;;;;17.30;11.10;;;1.90;99.90;;;;;;5073711;28;20589;-82
2022/12/14 13:10:30;;;;;;;18.20;10.83;;;1.90;99.50;;;;;;5074709;28;20652;-80
2022/12/14 13:13:19;;;;;;;14.30;10.47;;;1.80;99.70;;;;;;5073576;28;20187;-85
2022/12/14 13:15:51;;;;;;;14.63;10.27;;;1.90;99.70;;;;;;5072786;28;20616;-83
2022/12/14 13:18:47;;;;;;;14.23;10.50;;;1.70;99.40;;;;;;5072688;28;20183;-82
2022/12/14 13:21:35;;;;;;;16.63;10.20;;;1.70;99.60;;;;;;5071927;28;20613;-81